Time;durP1;ratioP1;P1;durP2;ratioP2;P2;SDS_P1;SDS_P2;PMS_P1;PMS_P2;Temp;Humidity;BMP_temperature;BMP_pressure;BME280_temperature;BME280_humidity;BME280_pressure;Samples;Min_cycle;Max_cycle;Signal;HPM_P1;HPM_P2
2022/10/30 00:01:20;;;;;;;9.03;5.25;;;;;;;12.09;100.00;150692.22;1772653;80;21016;-59
2022/10/30 00:03:47;;;;;;;5.97;4.50;;;;;;;12.09;100.00;150692.22;1769931;81;21430;-58
2022/10/30 00:06:14;;;;;;;8.68;5.20;;;;;;;12.09;100.00;150690.95;1769258;80;21517;-59
2022/10/30 00:08:41;;;;;;;8.15;4.35;;;;;;;12.07;100.00;150685.77;1772566;80;20993;-59
2022/10/30 00:11:12;;;;;;;10.28;4.92;;;;;;;12.07;100.00;150685.77;1754181;81;21080;-59
2022/10/30 00:13:43;;;;;;;9.28;5.15;;;;;;;12.08;100.00;150688.36;1763849;81;21029;-59
2022/10/30 00:16:10;;;;;;;11.00;5.55;;;;;;;12.08;100.00;150689.63;1772898;81;21845;-59
2022/10/30 00:18:40;;;;;;;5.62;4.15;;;;;;;12.08;100.00;150689.63;1759613;80;21065;-59
2022/10/30 00:21:10;;;;;;;7.40;4.65;;;;;;;12.11;100.00;150696.14;1763259;81;21068;-59
2022/10/30 00:23:37;;;;;;;10.25;5.17;;;;;;;12.12;100.00;150698.73;1760915;80;21032;-60
2022/10/30 00:26:05;;;;;;;11.10;5.25;;;;;;;12.14;100.00;150703.94;1768925;81;20994;-58
2022/10/30 00:28:34;;;;;;;8.60;4.83;;;;;;;12.14;100.00;150705.20;1770749;81;21016;-60
2022/10/30 00:31:01;;;;;;;9.78;5.08;;;;;;;12.16;100.00;150709.13;1772614;81;20986;-59
2022/10/30 00:33:29;;;;;;;7.30;4.95;;;;;;;12.15;100.00;150706.53;1772428;80;20977;-59
2022/10/30 00:35:57;;;;;;;6.40;5.10;;;;;;;12.16;100.00;150709.13;1769563;80;21068;-60
2022/10/30 00:38:25;;;;;;;10.45;5.53;;;;;;;12.15;100.00;150706.53;1771715;81;21443;-60
2022/10/30 00:40:53;;;;;;;7.60;5.10;;;;;;;12.15;100.00;150706.53;1770728;81;21083;-61
2022/10/30 00:43:37;;;;;;;8.00;5.17;;;;;;;12.15;100.00;150706.53;1770507;80;20950;-61
2022/10/30 00:46:34;;;;;;;6.55;4.75;;;;;;;12.13;100.00;150702.61;1767137;80;20998;-59
2022/10/30 00:49:16;;;;;;;10.00;4.95;;;;;;;12.13;100.00;150701.34;1755615;80;21500;-59
2022/10/30 00:51:50;;;;;;;7.45;5.33;;;;;;;12.10;100.00;150694.83;1748406;81;21060;-59
2022/10/30 00:54:18;;;;;;;7.72;5.25;;;;;;;12.06;100.00;150683.16;1751330;80;21847;-59
2022/10/30 00:56:45;;;;;;;8.78;4.95;;;;;;;12.03;100.00;150677.92;1750818;81;21112;-59
2022/10/30 00:59:21;;;;;;;12.25;5.58;;;;;;;11.99;100.00;150667.50;1750140;81;21366;-59
2022/10/30 01:01:49;;;;;;;10.80;5.92;;;;;;;11.97;100.00;150662.30;1751740;80;21076;-59
2022/10/30 01:04:16;;;;;;;8.35;5.50;;;;;;;11.94;100.00;150654.52;1767255;81;21068;-59
2022/10/30 01:06:47;;;;;;;8.48;5.80;;;;;;;11.92;100.00;150649.33;1771688;80;21017;-60
2022/10/30 01:09:14;;;;;;;11.08;5.78;;;;;;;11.93;100.00;150651.92;1765429;80;21099;-60
2022/10/30 01:11:41;;;;;;;8.20;5.67;;;;;;;11.93;100.00;150651.92;1742980;81;21088;-59
2022/10/30 01:14:08;;;;;;;11.22;6.30;;;;;;;11.94;100.00;150653.25;1764944;80;21036;-59
2022/10/30 01:16:59;;;;;;;9.70;6.58;;;;;;;11.95;100.00;150657.11;1752108;80;21051;-59
2022/10/30 01:19:59;;;;;;;9.35;6.30;;;;;;;11.96;100.00;150659.70;1748993;80;22116;-59
2022/10/30 01:22:53;;;;;;;10.48;6.33;;;;;;;11.97;100.00;150662.30;1756745;80;21460;-61
2022/10/30 01:25:35;;;;;;;12.23;6.53;;;;;;;11.96;100.00;150658.44;1754266;80;21075;-59
2022/10/30 01:28:31;;;;;;;14.18;7.28;;;;;;;11.93;100.00;150651.92;1764153;80;21098;-60
2022/10/30 01:31:24;;;;;;;11.80;6.80;;;;;;;11.89;100.00;150641.53;1754545;80;21023;-61
2022/10/30 01:34:14;;;;;;;12.68;7.37;;;;;;;11.84;100.00;150628.56;1761783;80;21561;-59
2022/10/30 01:36:57;;;;;;;11.63;7.00;;;;;;;11.82;100.00;150623.31;1761918;80;21023;-58
2022/10/30 01:39:26;;;;;;;13.08;7.97;;;;;;;11.79;100.00;150616.86;1767484;80;21490;-58
2022/10/30 01:41:53;;;;;;;12.73;7.85;;;;;;;11.77;100.00;150610.34;1768634;80;21068;-59
2022/10/30 01:44:29;;;;;;;15.03;8.75;;;;;;;11.76;100.00;150609.06;1773646;80;21450;-58
2022/10/30 01:47:08;;;;;;;15.23;8.43;;;;;;;11.79;100.00;150616.86;1774936;80;22244;-59
2022/10/30 01:49:57;;;;;;;13.65;8.05;;;;;;;11.79;100.00;150615.53;1774160;80;21084;-60
2022/10/30 01:52:41;;;;;;;13.08;8.43;;;;;;;11.79;100.00;150616.86;1766723;80;21016;-60
2022/10/30 01:55:38;;;;;;;16.90;9.00;;;;;;;11.77;100.00;150610.34;1759332;80;21077;-59
2022/10/30 01:58:29;;;;;;;13.95;8.40;;;;;;;11.78;100.00;150612.94;1727634;80;21040;-58
2022/10/30 02:00:57;;;;;;;15.32;9.70;;;;;;;11.79;100.00;150616.86;1734762;80;21493;-59
2022/10/30 02:03:25;;;;;;;13.45;8.50;;;;;;;11.81;100.00;150622.05;1737202;80;21110;-59
2022/10/30 02:05:52;;;;;;;13.45;9.00;;;;;;;11.83;100.00;150625.97;1755911;80;21076;-59
2022/10/30 02:08:20;;;;;;;14.53;9.20;;;;;;;11.84;100.00;150629.83;1759000;80;20990;-59
2022/10/30 02:10:51;;;;;;;13.22;8.68;;;;;;;11.85;100.00;150631.16;1739442;80;21447;-58
2022/10/30 02:13:19;;;;;;;13.13;9.05;;;;;;;11.87;100.00;150636.34;1748769;80;21233;-60
2022/10/30 02:15:46;;;;;;;15.13;9.18;;;;;;;11.88;100.00;150638.94;1772603;81;21081;-60
2022/10/30 02:18:13;;;;;;;13.75;8.10;;;;;;;11.90;100.00;150644.13;1772632;81;20976;-60
2022/10/30 02:20:40;;;;;;;13.80;8.75;;;;;;;11.90;100.00;150644.13;1775474;80;21041;-60
2022/10/30 02:23:12;;;;;;;15.15;8.53;;;;;;;11.91;100.00;150646.73;1771949;80;21068;-60
2022/10/30 02:25:38;;;;;;;13.00;8.38;;;;;;;11.93;100.00;150651.92;1775427;80;20945;-60
2022/10/30 02:28:05;;;;;;;12.05;8.28;;;;;;;11.94;100.00;150654.52;1774282;80;21031;-60
2022/10/30 02:30:33;;;;;;;12.60;8.78;;;;;;;11.95;100.00;150657.11;1770355;80;21467;-60
2022/10/30 02:33:01;;;;;;;15.10;8.48;;;;;;;11.95;100.00;150657.11;1738466;80;21103;-60
2022/10/30 02:35:29;;;;;;;13.55;8.48;;;;;;;11.97;100.00;150662.30;1761766;80;20924;-59
2022/10/30 02:37:56;;;;;;;15.75;8.70;;;;;;;11.99;100.00;150667.50;1758771;80;22213;-59
2022/10/30 02:40:23;;;;;;;13.62;8.43;;;;;;;11.99;100.00;150667.50;1755253;80;21047;-60
2022/10/30 02:42:53;;;;;;;15.30;8.80;;;;;;;11.99;100.00;150666.22;1751417;80;21089;-59
2022/10/30 02:45:21;;;;;;;12.98;8.05;;;;;;;11.98;100.00;150663.63;1763014;80;21084;-59
2022/10/30 02:47:49;;;;;;;12.23;7.97;;;;;;;11.96;100.00;150659.70;1760199;80;20969;-60
2022/10/30 02:50:16;;;;;;;11.45;7.30;;;;;;;11.95;100.00;150657.11;1764396;80;21213;-60
2022/10/30 02:52:43;;;;;;;11.45;7.70;;;;;;;11.96;100.00;150659.70;1773924;80;21029;-59
2022/10/30 02:55:10;;;;;;;11.70;7.22;;;;;;;11.97;100.00;150661.03;1771943;80;20985;-60
2022/10/30 02:57:38;;;;;;;10.95;7.50;;;;;;;11.97;100.00;150662.30;1761506;80;21096;-60
2022/10/30 03:00:07;;;;;;;11.65;6.62;;;;;;;11.98;100.00;150664.89;1766215;80;21023;-60
2022/10/30 03:02:36;;;;;;;10.13;7.65;;;;;;;11.98;100.00;150664.89;1769254;80;20990;-59
2022/10/30 03:05:04;;;;;;;10.60;7.33;;;;;;;11.99;100.00;150667.50;1771866;80;21033;-60
2022/10/30 03:07:33;;;;;;;13.05;7.33;;;;;;;12.00;100.00;150668.81;1770293;80;20985;-60
2022/10/30 03:10:00;;;;;;;14.20;7.30;;;;;;;12.00;100.00;150670.09;1731114;81;21045;-60
2022/10/30 03:12:27;;;;;;;17.17;8.18;;;;;;;11.99;100.00;150667.50;1712681;82;20992;-60
2022/10/30 03:14:54;;;;;;;11.85;8.13;;;;;;;11.97;100.00;150662.30;1721445;81;21873;-60
2022/10/30 03:17:21;;;;;;;9.88;7.17;;;;;;;11.95;100.00;150657.11;1726909;81;21057;-58
2022/10/30 03:19:50;;;;;;;14.95;7.92;;;;;;;11.93;100.00;150651.92;1729767;81;21073;-59
2022/10/30 03:22:18;;;;;;;13.88;8.75;;;;;;;11.91;100.00;150646.73;1733795;80;21077;-59
2022/10/30 03:24:49;;;;;;;10.70;7.22;;;;;;;11.89;100.00;150641.53;1738026;81;21052;-59
2022/10/30 03:27:21;;;;;;;9.70;6.80;;;;;;;11.85;100.00;150632.44;1736639;80;21041;-58
2022/10/30 03:29:50;;;;;;;11.25;7.15;;;;;;;11.83;100.00;150627.23;1731705;81;21059;-58
2022/10/30 03:32:17;;;;;;;12.13;7.33;;;;;;;11.81;100.00;150622.05;1739099;81;21047;-59
2022/10/30 03:34:48;;;;;;;15.08;7.40;;;;;;;11.80;100.00;150619.45;1726469;81;21659;-59
2022/10/30 03:37:15;;;;;;;13.68;7.60;;;;;;;11.82;100.00;150623.31;1729122;80;21373;-59
2022/10/30 03:39:42;;;;;;;11.00;6.67;;;;;;;11.80;100.00;150618.12;1713439;82;21145;-59
2022/10/30 03:42:10;;;;;;;15.65;8.03;;;;;;;11.82;100.00;150623.31;1717438;82;21013;-59
2022/10/30 03:44:37;;;;;;;10.68;7.35;;;;;;;11.83;100.00;150625.97;1721045;81;21514;-59
2022/10/30 03:47:05;;;;;;;11.88;7.20;;;;;;;11.83;100.00;150625.97;1740267;81;21045;-59
2022/10/30 03:49:34;;;;;;;10.78;7.15;;;;;;;11.83;100.00;150627.23;1725068;82;20969;-60
2022/10/30 03:52:03;;;;;;;13.00;7.58;;;;;;;11.82;100.00;150624.64;1725472;82;21246;-59
2022/10/30 03:54:30;;;;;;;11.55;7.33;;;;;;;11.84;100.00;150628.56;1725421;82;20935;-59
2022/10/30 03:56:57;;;;;;;10.65;7.22;;;;;;;11.85;100.00;150631.16;1725572;82;21024;-59
2022/10/30 03:59:25;;;;;;;9.93;6.95;;;;;;;11.87;100.00;150636.34;1726616;82;21045;-59
2022/10/30 04:02:06;;;;;;;12.60;7.10;;;;;;;11.86;100.00;150635.03;1726814;82;21334;-59
2022/10/30 04:04:33;;;;;;;11.38;7.58;;;;;;;11.87;100.00;150636.34;1726821;82;21085;-59
2022/10/30 04:07:00;;;;;;;13.05;7.35;;;;;;;11.87;100.00;150636.34;1724505;82;21049;-59
2022/10/30 04:09:27;;;;;;;15.00;7.58;;;;;;;11.87;100.00;150636.34;1723406;82;21054;-59
2022/10/30 04:11:55;;;;;;;10.23;7.17;;;;;;;11.85;100.00;150632.44;1748170;81;21036;-59
2022/10/30 04:14:23;;;;;;;9.58;6.95;;;;;;;11.82;100.00;150624.64;1727784;82;20997;-58
2022/10/30 04:16:50;;;;;;;12.07;7.20;;;;;;;11.80;100.00;150618.12;1733549;80;21217;-59
2022/10/30 04:19:18;;;;;;;12.70;7.03;;;;;;;11.77;100.00;150610.34;1747687;80;21444;-60
2022/10/30 04:21:48;;;;;;;12.45;7.60;;;;;;;11.75;100.00;150606.47;1744791;80;21083;-59
2022/10/30 04:24:17;;;;;;;10.40;7.47;;;;;;;11.70;100.00;150594.78;1742999;80;21095;-58
2022/10/30 04:26:46;;;;;;;11.60;7.75;;;;;;;11.68;100.00;150589.58;1739329;80;21537;-60
2022/10/30 04:29:14;;;;;;;15.03;7.78;;;;;;;11.65;100.00;150581.80;1721577;80;21209;-60
2022/10/30 04:31:42;;;;;;;11.57;7.75;;;;;;;11.64;100.00;150579.20;1730943;82;21022;-59
2022/10/30 04:34:09;;;;;;;12.50;7.28;;;;;;;11.64;100.00;150577.88;1738636;81;21086;-59
2022/10/30 04:36:36;;;;;;;14.65;7.78;;;;;;;11.63;100.00;150576.61;1746615;81;21001;-59
2022/10/30 04:39:04;;;;;;;10.35;7.28;;;;;;;11.61;100.00;150571.41;1740777;81;21454;-60
2022/10/30 04:41:33;;;;;;;12.58;8.15;;;;;;;11.62;100.00;150574.02;1725395;82;21527;-59
2022/10/30 04:44:02;;;;;;;14.70;7.83;;;;;;;11.62;100.00;150574.02;1717687;82;22066;-58
2022/10/30 04:46:32;;;;;;;12.03;8.10;;;;;;;11.64;100.00;150577.88;1716001;82;20946;-59
2022/10/30 04:49:01;;;;;;;11.53;7.50;;;;;;;11.63;100.00;150576.61;1713054;82;21522;-59
2022/10/30 04:51:29;;;;;;;16.40;8.23;;;;;;;11.63;100.00;150576.61;1738685;81;21076;-59
2022/10/30 04:53:58;;;;;;;11.20;7.78;;;;;;;11.64;100.00;150577.88;1719805;81;21234;-63
2022/10/30 04:56:26;;;;;;;14.80;8.23;;;;;;;11.65;100.00;150581.80;1730055;81;21520;-59
2022/10/30 04:58:53;;;;;;;15.03;8.50;;;;;;;11.66;100.00;150584.39;1733687;82;21001;-59
2022/10/30 05:01:20;;;;;;;12.25;7.47;;;;;;;11.67;100.00;150586.98;1728447;81;21029;-59
2022/10/30 05:03:47;;;;;;;11.78;7.80;;;;;;;11.68;100.00;150589.58;1719747;82;21523;-59
2022/10/30 05:06:23;;;;;;;12.73;8.05;;;;;;;11.67;100.00;150586.98;1721276;82;21113;-59
2022/10/30 05:08:51;;;;;;;13.72;7.55;;;;;;;11.69;100.00;150592.17;1721353;82;21021;-59
2022/10/30 05:11:20;;;;;;;13.15;8.63;;;;;;;11.72;100.00;150598.69;1699767;82;21008;-61
2022/10/30 05:13:48;;;;;;;14.23;8.50;;;;;;;11.74;100.00;150603.87;1726880;82;21061;-60
2022/10/30 05:16:17;;;;;;;11.88;7.35;;;;;;;11.74;100.00;150603.87;1695563;82;21495;-61
2022/10/30 05:18:44;;;;;;;15.78;8.43;;;;;;;11.77;100.00;150610.34;1715879;82;22154;-61
2022/10/30 05:21:11;;;;;;;13.38;8.55;;;;;;;11.77;100.00;150611.66;1714251;82;21035;-60
2022/10/30 05:23:40;;;;;;;15.53;8.28;;;;;;;11.76;100.00;150609.06;1719395;82;21079;-60
2022/10/30 05:26:08;;;;;;;11.40;7.92;;;;;;;11.79;100.00;150615.53;1728281;82;21093;-63
2022/10/30 05:28:35;;;;;;;13.25;8.08;;;;;;;11.80;100.00;150619.45;1720773;82;21029;-60
2022/10/30 05:31:01;;;;;;;12.93;8.48;;;;;;;11.83;100.00;150625.97;1726682;82;21111;-64
2022/10/30 05:33:34;;;;;;;13.22;7.80;;;;;;;11.86;100.00;150633.75;1710971;82;20955;-63
2022/10/30 05:36:00;;;;;;;14.10;8.38;;;;;;;11.91;100.00;150646.73;1722953;82;21218;-62
2022/10/30 05:38:27;;;;;;;12.00;8.65;;;;;;;11.94;100.00;150653.25;1716995;82;21072;-62
2022/10/30 05:40:55;;;;;;;13.65;8.63;;;;;;;11.95;100.00;150657.11;1711997;82;21099;-63
2022/10/30 05:43:22;;;;;;;13.53;7.67;;;;;;;11.99;100.00;150667.50;1715326;82;21228;-63
2022/10/30 05:45:50;;;;;;;12.45;8.18;;;;;;;12.00;100.00;150670.09;1718510;82;21108;-62
2022/10/30 05:48:17;;;;;;;11.30;7.80;;;;;;;12.06;100.00;150683.16;1718933;82;21014;-59
2022/10/30 05:50:46;;;;;;;11.85;8.20;;;;;;;12.09;100.00;150690.95;1715079;82;21546;-59
2022/10/30 05:53:14;;;;;;;11.75;7.60;;;;;;;12.12;100.00;150700.02;1713888;82;21036;-62
2022/10/30 05:55:42;;;;;;;12.50;8.38;;;;;;;12.15;100.00;150707.80;1715051;82;21513;-62
2022/10/30 05:58:10;;;;;;;13.03;8.20;;;;;;;12.20;100.00;150719.50;1717957;82;21054;-62
2022/10/30 06:00:39;;;;;;;12.88;7.58;;;;;;;12.23;100.00;150726.03;1723877;82;21081;-62
2022/10/30 06:03:10;;;;;;;12.40;8.20;;;;;;;12.25;100.00;150732.50;1715415;82;21013;-62
2022/10/30 06:05:44;;;;;;;12.85;8.13;;;;;;;12.25;100.00;150731.22;1722111;82;21271;-59
2022/10/30 06:08:11;;;;;;;12.55;7.60;;;;;;;12.28;100.00;150739.00;1719283;82;21868;-58
2022/10/30 06:10:40;;;;;;;14.60;7.90;;;;;;;12.32;100.00;150750.72;1720348;82;21529;-59
2022/10/30 06:13:16;;;;;;;12.98;7.78;;;;;;;12.40;100.00;150770.20;1694677;82;21489;-58
2022/10/30 06:15:49;;;;;;;13.05;8.70;;;;;;;12.46;100.00;150785.80;1723632;82;21104;-60
2022/10/30 06:18:16;;;;;;;11.48;7.58;;;;;;;12.52;100.00;150798.77;1725542;81;21039;-60
2022/10/30 06:20:45;;;;;;;14.05;9.00;;;;;;;12.58;100.00;150814.34;1733538;81;21151;-60
2022/10/30 06:23:26;;;;;;;15.75;8.45;;;;;;;12.64;100.00;150829.98;1731500;80;21069;-59
2022/10/30 06:25:58;;;;;;;13.60;8.98;;;;;;;12.71;100.00;150848.16;1738166;80;21475;-59
2022/10/30 06:28:45;;;;;;;13.35;7.78;;;;;;;12.80;100.00;150870.27;1729869;81;21598;-60
2022/10/30 06:31:16;;;;;;;14.07;8.70;;;;;;;12.90;100.00;150894.97;1735090;81;21621;-59
2022/10/30 06:33:49;;;;;;;;;;;;;;;12.98;100.00;150914.47;1733423;81;21030;-60
2022/10/30 06:36:17;;;;;;;18.55;9.38;;;;;;;13.06;100.00;150935.25;1736581;80;20294;-59
2022/10/30 06:38:44;;;;;;;19.23;8.40;;;;;;;13.13;100.00;150953.44;1734186;81;21120;-59
2022/10/30 06:41:12;;;;;;;14.50;8.45;;;;;;;13.18;100.00;150966.47;1728287;81;21032;-60
2022/10/30 06:43:57;;;;;;;15.15;8.03;;;;;;;13.24;100.00;150979.45;1733971;81;21561;-60
2022/10/30 06:46:24;;;;;;;15.40;8.28;;;;;;;13.32;100.00;151000.25;1733519;81;22256;-60
2022/10/30 06:48:52;;;;;;;13.50;7.80;;;;;;;13.40;100.00;151021.08;1730856;81;21041;-59
2022/10/30 06:51:18;;;;;;;12.85;8.00;;;;;;;13.50;100.00;151044.52;1725399;82;21447;-61
2022/10/30 06:53:46;;;;;;;14.50;8.30;;;;;;;13.60;100.00;151070.55;1723303;82;21023;-60
2022/10/30 06:56:27;;;;;;;13.20;8.03;;;;;;;13.68;100.00;151091.34;1639935;82;21584;-60
2022/10/30 06:59:12;;;;;;;13.55;8.05;;;;;;;13.79;100.00;151117.33;1694858;83;22162;-59
2022/10/30 07:01:41;;;;;;;11.80;7.80;;;;;;;13.85;99.60;151134.25;1722799;82;21640;-60
2022/10/30 07:04:19;;;;;;;13.88;7.67;;;;;;;13.94;99.70;151156.38;1723305;82;21011;-59
2022/10/30 07:06:46;;;;;;;13.98;8.05;;;;;;;14.06;98.99;151185.00;1723613;82;21088;-59
2022/10/30 07:09:13;;;;;;;14.33;8.03;;;;;;;14.15;98.40;151209.73;1673843;83;21058;-60
2022/10/30 07:11:44;;;;;;;11.38;7.95;;;;;;;14.25;97.84;151234.41;1699581;83;21282;-60
2022/10/30 07:14:14;;;;;;;14.45;8.40;;;;;;;14.35;97.47;151259.12;1710515;82;21018;-60
2022/10/30 07:16:55;;;;;;;16.40;7.58;;;;;;;14.50;96.30;151296.91;1717796;82;21097;-61
2022/10/30 07:19:24;;;;;;;15.18;8.43;;;;;;;14.65;95.75;151333.31;1697798;83;21553;-60
2022/10/30 07:21:53;;;;;;;13.83;8.50;;;;;;;14.80;94.12;151372.41;1711171;82;21402;-59
2022/10/30 07:24:20;;;;;;;15.50;8.10;;;;;;;14.91;92.54;151399.75;1727707;83;21491;-58
2022/10/30 07:27:06;;;;;;;15.18;8.20;;;;;;;15.05;91.70;151434.89;1724907;82;21054;-60
2022/10/30 07:29:34;;;;;;;16.32;8.53;;;;;;;15.21;91.48;151473.97;1731962;82;21049;-62
2022/10/30 07:32:06;;;;;;;14.15;7.50;;;;;;;15.36;90.38;151512.98;1719750;83;21465;-62
2022/10/30 07:34:34;;;;;;;15.20;8.98;;;;;;;15.52;89.43;151553.39;1712464;82;21454;-59
2022/10/30 07:37:19;;;;;;;15.28;8.13;;;;;;;15.70;88.24;151598.95;1698674;82;21518;-60
2022/10/30 07:39:50;;;;;;;13.05;7.08;;;;;;;15.89;86.41;151645.91;1708166;82;21597;-59
2022/10/30 07:42:19;;;;;;;14.63;7.35;;;;;;;16.03;84.72;151682.39;1712256;82;21530;-59
2022/10/30 07:45:04;;;;;;;14.33;7.08;;;;;;;16.18;83.65;151720.16;1726267;82;21080;-60
2022/10/30 07:47:35;;;;;;;15.65;8.13;;;;;;;16.30;82.10;151750.12;1723912;81;20993;-60
2022/10/30 07:50:05;;;;;;;16.42;8.28;;;;;;;16.35;80.45;151761.81;1681476;83;21094;-60
2022/10/30 07:52:34;;;;;;;16.93;8.15;;;;;;;16.39;79.73;151770.95;1698761;83;20995;-60
2022/10/30 07:55:00;;;;;;;20.60;8.20;;;;;;;16.41;79.21;151776.16;1707683;83;21534;-61
2022/10/30 07:57:45;;;;;;;15.03;7.83;;;;;;;16.46;78.76;151789.19;1717905;83;21593;-60
2022/10/30 08:00:24;;;;;;;15.95;8.68;;;;;;;16.45;78.63;151787.91;1727642;83;20986;-59
2022/10/30 08:02:55;;;;;;;17.70;8.83;;;;;;;16.49;78.10;151795.72;1726736;83;21105;-60
2022/10/30 08:05:30;;;;;;;16.85;8.85;;;;;;;16.51;77.93;151802.25;1689675;83;21061;-60
2022/10/30 08:07:59;;;;;;;16.05;8.20;;;;;;;16.54;77.74;151810.06;1706261;83;21068;-60
2022/10/30 08:10:27;;;;;;;18.45;8.60;;;;;;;16.59;77.56;151823.08;1726178;81;21032;-59
2022/10/30 08:12:54;;;;;;;15.80;7.92;;;;;;;16.63;77.58;151830.89;1733582;81;21025;-60
2022/10/30 08:15:22;;;;;;;19.95;9.03;;;;;;;16.68;77.18;151843.91;1742230;81;21557;-60
2022/10/30 08:17:51;;;;;;;22.65;8.43;;;;;;;16.69;77.06;151847.84;1739874;81;21379;-60
2022/10/30 08:20:21;;;;;;;14.87;7.85;;;;;;;16.71;76.76;151851.77;1730110;82;21006;-60
2022/10/30 08:22:54;;;;;;;18.35;8.08;;;;;;;16.73;76.45;151856.98;1741730;81;21089;-60
2022/10/30 08:25:26;;;;;;;15.93;8.70;;;;;;;16.76;76.43;151864.78;1738256;81;21101;-60
2022/10/30 08:28:04;;;;;;;15.05;9.00;;;;;;;16.79;76.37;151872.59;1748480;81;21990;-60
2022/10/30 08:30:35;;;;;;;16.15;8.43;;;;;;;16.81;76.28;151876.53;1746407;81;21037;-59
2022/10/30 08:33:05;;;;;;;18.17;8.75;;;;;;;16.82;75.95;151880.42;1717461;81;21553;-59
2022/10/30 08:35:52;;;;;;;18.52;8.70;;;;;;;16.82;76.01;151880.42;1722825;81;21099;-60
2022/10/30 08:38:18;;;;;;;16.15;9.18;;;;;;;16.82;76.56;151879.14;1732411;81;21008;-62
2022/10/30 08:40:47;;;;;;;20.10;9.25;;;;;;;16.85;76.84;151888.23;1724116;83;21970;-60
2022/10/30 08:43:14;;;;;;;18.27;8.85;;;;;;;16.84;76.70;151885.62;1725446;81;21025;-59
2022/10/30 08:45:43;;;;;;;16.52;8.38;;;;;;;16.83;76.65;151883.03;1723745;82;21154;-60
2022/10/30 08:48:14;;;;;;;20.90;8.30;;;;;;;16.80;76.56;151875.22;1721899;82;21156;-60
2022/10/30 08:50:43;;;;;;;21.95;9.60;;;;;;;16.77;76.91;151867.41;1722388;82;21104;-59
2022/10/30 08:53:11;;;;;;;20.23;10.15;;;;;;;16.76;77.39;151864.78;1723906;82;21563;-60
2022/10/30 08:55:38;;;;;;;16.17;9.28;;;;;;;16.75;78.08;151863.47;1717324;82;20946;-61
2022/10/30 08:58:07;;;;;;;15.28;9.40;;;;;;;16.74;78.83;151860.86;1725296;82;21064;-60
2022/10/30 09:00:35;;;;;;;19.42;9.90;;;;;;;16.70;79.08;151849.17;1705482;82;21069;-61
2022/10/30 09:03:11;;;;;;;18.05;9.30;;;;;;;16.60;79.07;151824.41;1730242;82;21459;-61
2022/10/30 09:05:44;;;;;;;20.70;8.88;;;;;;;16.52;79.97;151804.84;1735058;81;21138;-60
2022/10/30 09:08:31;;;;;;;20.82;10.08;;;;;;;16.45;80.87;151786.56;1759775;80;21401;-60
2022/10/30 09:11:09;;;;;;;16.55;9.25;;;;;;;16.39;81.45;151770.95;1750574;80;21081;-60
2022/10/30 09:13:38;;;;;;;18.67;10.00;;;;;;;16.33;82.01;151756.61;1739951;80;21047;-60
2022/10/30 09:16:07;;;;;;;16.87;9.18;;;;;;;16.33;82.61;151757.94;1732240;79;21471;-60
2022/10/30 09:18:35;;;;;;;16.80;9.08;;;;;;;16.35;83.62;151760.53;1752797;80;21866;-60
2022/10/30 09:21:02;;;;;;;16.40;8.55;;;;;;;16.36;83.91;151763.14;1734070;80;21050;-60
2022/10/30 09:23:30;;;;;;;17.02;9.55;;;;;;;16.37;84.17;151765.75;1773365;80;21049;-58
2022/10/30 09:25:59;;;;;;;16.77;9.20;;;;;;;16.37;84.11;151765.75;1758885;80;21152;-62
2022/10/30 09:28:30;;;;;;;14.50;9.18;;;;;;;16.40;83.89;151773.55;1720725;82;21020;-61
2022/10/30 09:31:02;;;;;;;17.65;9.53;;;;;;;16.42;84.12;151778.77;1722893;80;21800;-60
2022/10/30 09:33:31;;;;;;;19.02;10.00;;;;;;;16.43;84.32;151781.38;1774205;80;21022;-60
2022/10/30 09:36:06;;;;;;;;;;;;;;;16.41;83.37;151776.16;1750397;80;21070;-60
2022/10/30 09:38:33;;;;;;;19.02;9.90;;;;;;;16.41;83.09;151776.16;1779887;80;20153;-62
2022/10/30 09:41:23;;;;;;;20.77;9.90;;;;;;;16.40;83.02;151773.55;1778032;80;20995;-60
2022/10/30 09:44:26;;;;;;;18.57;9.80;;;;;;;16.41;82.86;151776.16;1779709;80;21125;-60
2022/10/30 09:47:27;;;;;;;15.48;9.48;;;;;;;16.43;82.83;151781.38;1786436;80;21419;-59
2022/10/30 09:50:13;;;;;;;17.30;10.08;;;;;;;16.42;82.76;151780.09;1756182;80;21098;-60
2022/10/30 09:53:00;;;;;;;23.10;10.08;;;;;;;16.47;82.36;151793.11;1748513;81;21042;-60
2022/10/30 09:56:03;;;;;;;21.85;10.18;;;;;;;16.54;82.14;151808.73;1707893;81;21522;-61
2022/10/30 09:58:38;;;;;;;21.12;10.15;;;;;;;16.59;81.68;151823.08;1727007;81;21302;-60
2022/10/30 10:01:24;;;;;;;19.98;10.82;;;;;;;16.64;81.09;151833.50;1738652;81;21028;-61
2022/10/30 10:04:08;;;;;;;17.87;9.90;;;;;;;16.67;80.89;151841.31;1732187;80;21087;-60
2022/10/30 10:06:54;;;;;;;18.62;11.08;;;;;;;16.71;80.92;151853.05;1655709;81;21531;-60
2022/10/30 10:09:24;;;;;;;21.65;10.68;;;;;;;16.77;80.72;151867.41;1687802;82;21404;-60
2022/10/30 10:12:01;;;;;;;19.35;10.25;;;;;;;16.83;80.53;151883.03;1664556;83;48628;-59
2022/10/30 10:14:38;;;;;;;17.80;10.53;;;;;;;16.94;79.92;151909.13;1703092;81;21056;-60
2022/10/30 10:17:05;;;;;;;23.07;11.10;;;;;;;16.97;79.21;151918.22;1706409;82;21104;-60
2022/10/30 10:19:48;;;;;;;20.92;10.70;;;;;;;16.99;79.18;151923.47;1704525;82;21061;-59
2022/10/30 10:22:34;;;;;;;20.95;10.55;;;;;;;17.02;78.81;151931.33;1691857;83;21131;-61
2022/10/30 10:25:04;;;;;;;19.55;10.58;;;;;;;17.06;78.50;151940.42;1695948;81;21024;-59
2022/10/30 10:27:43;;;;;;;17.73;10.55;;;;;;;17.10;78.15;151949.56;1697697;81;21119;-60
2022/10/30 10:30:20;;;;;;;16.90;11.30;;;;;;;17.09;77.84;151948.23;1703318;81;21104;-60
2022/10/30 10:33:40;;;;;;;21.12;11.48;;;;;;;17.09;77.93;151948.23;1743104;80;21048;-60
2022/10/30 10:36:51;;;;;;;24.07;10.23;;;;;;;17.10;77.74;151950.84;1757141;80;21140;-61
2022/10/30 10:39:33;;;;;;;16.80;9.78;;;;;;;17.17;76.82;151969.13;1772038;80;21236;-60
2022/10/30 10:42:20;;;;;;;19.20;9.90;;;;;;;17.23;75.47;151982.16;1757690;80;21076;-60
2022/10/30 10:45:29;;;;;;;21.15;10.00;;;;;;;17.29;74.96;151999.11;1756488;80;21037;-61
2022/10/30 10:48:21;;;;;;;20.50;9.95;;;;;;;17.34;74.46;152010.81;1666323;84;21062;-60
2022/10/30 10:51:05;;;;;;;15.85;9.33;;;;;;;17.41;73.88;152029.09;1711761;81;21080;-61
2022/10/30 10:53:53;;;;;;;19.77;9.50;;;;;;;17.43;73.70;152032.98;1720888;82;21300;-59
2022/10/30 10:56:21;;;;;;;15.30;9.55;;;;;;;17.49;73.55;152048.66;1729773;82;22051;-60
2022/10/30 10:58:52;;;;;;;20.70;11.05;;;;;;;17.54;73.20;152060.36;1731500;82;21100;-60
2022/10/30 11:01:24;;;;;;;25.30;10.20;;;;;;;17.61;72.73;152078.66;1735789;82;21068;-60
2022/10/30 11:04:09;;;;;;;21.10;10.10;;;;;;;17.62;73.15;152081.25;1731257;82;21069;-60
2022/10/30 11:06:41;;;;;;;15.80;9.65;;;;;;;17.63;73.76;152083.86;1697122;82;22382;-59
2022/10/30 11:09:20;;;;;;;18.85;10.03;;;;;;;17.66;73.60;152091.69;1721943;82;21045;-61
2022/10/30 11:11:49;;;;;;;14.83;9.35;;;;;;;17.64;72.80;152085.14;1672373;84;21085;-61
2022/10/30 11:14:27;;;;;;;17.90;9.50;;;;;;;17.64;72.08;152085.14;1682735;84;20965;-60
2022/10/30 11:17:27;;;;;;;17.12;9.00;;;;;;;17.67;71.68;152094.28;1685651;84;21010;-60
2022/10/30 11:19:59;;;;;;;15.98;8.83;;;;;;;17.69;71.28;152099.50;1680344;84;21205;-60
2022/10/30 11:22:39;;;;;;;13.62;8.40;;;;;;;17.74;70.51;152111.25;1706713;82;21081;-61
2022/10/30 11:25:24;;;;;;;21.20;8.95;;;;;;;17.79;70.36;152122.95;1713233;83;21059;-60
2022/10/30 11:28:03;;;;;;;16.25;8.33;;;;;;;17.83;69.80;152133.42;1685386;84;21053;-60
2022/10/30 11:30:30;;;;;;;17.77;9.05;;;;;;;17.92;69.35;152155.59;1717419;82;21051;-61
2022/10/30 11:35:42;;;;;;;14.90;7.40;;;;;;;18.11;67.61;152205.17;1807881;77;28877;-61
2022/10/30 11:38:18;;;;;;;16.40;8.90;;;;;;;18.10;67.00;152201.28;1760964;81;20956;-61
2022/10/30 11:40:48;;;;;;;14.35;6.90;;;;;;;18.12;66.73;152206.50;1760843;80;21545;-60